South Lake Tahoe, California
Current Conditions -  °F | °C
As of 5:53 PM on Wednesday 22 Oct 2014 (Local Time) from KTVL Reporting Station
Clear Clear  
Wind Chill: 58°   Ceiling: Unl
Heat Index: 58°   Visibility: 10mi
Dew Point: 29°   Wind: 9mph
Humidity: 33%   Direction: 180°S
Pressure: 30.16"   Gusts: NA
Location:  38.91°N, 120°W
Report Text: KTVL 230053Z AUTO 18008KT 10SM CLR 14/M02 A3016 RMK AO2 SLP188 T01441017
Loading
Personal Weather Stations






























Interactive Weather Map
Tropical Storm Tracking
New forecast layout! Learn more

10-Day Weather Forecast

Advertisements
Track Severe Weather on mobile